Time;durP1;ratioP1;P1;durP2;ratioP2;P2;SDS_P1;SDS_P2;PMS_P1;PMS_P2;Temp;Humidity;BMP_temperature;BMP_pressure;BME280_temperature;BME280_humidity;BME280_pressure;Samples;Min_cycle;Max_cycle;Signal;HPM_P1;HPM_P2
2023/03/26 00:02:24;;;;;;;8.15;5.90;;;;;;;11.21;77.96;97137.97;10403873;28;20082;-54
2023/03/26 00:07:23;;;;;;;8.27;6.63;;;;;;;11.43;77.02;97135.97;10398249;28;20371;-55
2023/03/26 00:12:22;;;;;;;9.45;6.82;;;;;;;11.64;76.39;97136.50;10403257;28;20040;-54
2023/03/26 00:17:21;;;;;;;11.05;7.25;;;;;;;11.80;75.53;97155.31;10403171;28;20016;-55
2023/03/26 00:22:22;;;;;;;9.93;7.43;;;;;;;11.81;75.38;97160.50;10408852;28;20068;-54
2023/03/26 00:27:22;;;;;;;12.50;9.15;;;;;;;11.92;75.02;97159.47;10410115;28;20133;-55
2023/03/26 00:32:21;;;;;;;11.70;8.35;;;;;;;12.00;74.68;97162.81;10406056;28;20147;-53
2023/03/26 00:37:25;;;;;;;13.25;7.63;;;;;;;12.01;73.90;97143.72;10409162;28;20119;-52
2023/03/26 00:42:25;;;;;;;9.00;7.28;;;;;;;12.14;73.58;97131.38;10409232;28;20143;-55
2023/03/26 00:47:25;;;;;;;9.80;7.60;;;;;;;12.04;74.15;97128.06;10409052;28;20119;-54
2023/03/26 00:52:27;;;;;;;10.73;8.27;;;;;;;12.02;74.04;97141.13;10404972;28;20199;-52
2023/03/26 00:57:28;;;;;;;11.95;8.02;;;;;;;11.88;74.28;97125.72;10407817;28;20123;-52
2023/03/26 01:02:28;;;;;;;11.63;7.60;;;;;;;11.77;74.29;97132.00;10408718;28;20115;-52
2023/03/26 01:07:30;;;;;;;9.50;7.55;;;;;;;11.34;73.90;97072.88;10408834;28;20615;-54
2023/03/26 01:12:33;;;;;;;10.20;7.00;;;;;;;11.71;73.97;97125.13;10405950;28;20107;-53
2023/03/26 01:17:36;;;;;;;8.68;6.97;;;;;;;11.63;73.49;97122.66;10407516;28;20115;-53
2023/03/26 01:22:36;;;;;;;10.88;7.35;;;;;;;11.58;73.80;97128.81;10407585;28;20156;-53
2023/03/26 01:27:37;;;;;;;11.02;7.38;;;;;;;11.51;74.44;97145.38;10406404;28;20120;-53
2023/03/26 01:33:21;;;;;;;23.40;15.77;;;;;;;11.51;74.64;97132.38;10410688;28;20094;-53
2023/03/26 01:38:39;;;;;;;30.75;19.02;;;;;;;11.55;74.40;97145.31;10398777;28;20056;-53
2023/03/26 01:43:41;;;;;;;27.83;18.95;;;;;;;11.62;74.17;97146.09;10407432;28;20060;-54
2023/03/26 01:48:43;;;;;;;20.25;13.60;;;;;;;11.42;75.55;97148.97;10407428;28;20064;-54
2023/03/26 01:53:46;;;;;;;15.27;11.55;;;;;;;11.35;75.56;97127.41;10409208;28;20067;-54
2023/03/26 01:58:59;;;;;;;14.60;10.80;;;;;;;11.44;75.16;97137.66;10408652;28;20463;-54
2023/03/26 02:04:21;;;;;;;16.30;11.20;;;;;;;11.24;75.06;97095.53;10403229;28;20107;-54
2023/03/26 02:09:27;;;;;;;17.92;12.95;;;;;;;11.37;75.71;97141.22;10407346;28;20067;-54
2023/03/26 02:14:29;;;;;;;16.88;12.25;;;;;;;11.14;75.82;97112.13;10407005;28;20072;-53
2023/03/26 02:19:28;;;;;;;17.40;11.75;;;;;;;11.31;75.65;97146.50;10406893;28;20068;-54
2023/03/26 02:24:27;;;;;;;;;;;;;;;11.33;75.24;97143.91;10407398;28;20116;-54
2023/03/26 02:29:26;;;;;;;20.00;14.13;;;;;;;11.34;75.48;97151.69;10406136;28;20027;-54
2023/03/26 02:34:25;;;;;;;18.77;11.55;;;;;;;11.31;75.71;97146.50;10403107;28;20068;-55
2023/03/26 02:39:25;;;;;;;13.93;10.95;;;;;;;11.30;76.07;97147.41;10404837;28;20024;-54
2023/03/26 02:44:24;;;;;;;14.13;9.68;;;;;;;10.90;77.06;97116.75;10404071;28;20143;-55
2023/03/26 02:49:23;;;;;;;9.05;7.18;;;;;;;11.11;77.29;97154.56;10403863;28;20060;-54
2023/03/26 02:54:22;;;;;;;11.55;8.63;;;;;;;10.99;77.31;97154.72;10404652;28;20035;-54
2023/03/26 02:59:21;;;;;;;10.25;8.10;;;;;;;11.03;77.65;97166.78;10403753;28;20132;-54
2023/03/26 03:04:20;;;;;;;;;;;;;;;11.07;76.33;97190.97;10404757;28;20600;-54
2023/03/26 03:09:19;;;;;;;8.55;6.45;;;;;;;11.01;74.88;97184.09;10402456;28;19955;-54
2023/03/26 03:14:19;;;;;;;6.45;4.55;;;;;;;10.89;74.51;97198.09;10402530;28;20028;-54
2023/03/26 03:19:18;;;;;;;9.30;5.35;;;;;;;10.81;73.96;97213.72;10402911;28;20090;-54
2023/03/26 03:24:17;;;;;;;5.47;3.17;;;;;;;10.35;75.44;97215.91;10403061;28;20691;-54
2023/03/26 03:29:16;;;;;;;;;;;;;;;10.13;77.65;97223.88;10399943;28;20111;-54
2023/03/26 03:34:15;;;;;;;8.18;5.97;;;;;;;10.24;78.21;97222.91;10403383;28;19912;-54
2023/03/26 03:39:14;;;;;;;5.05;3.92;;;;;;;10.43;76.58;97234.88;10402816;28;20068;-53
2023/03/26 03:44:13;;;;;;;4.78;3.28;;;;;;;10.53;75.28;97233.91;10400093;28;20144;-54
2023/03/26 03:49:12;;;;;;;5.97;3.70;;;;;;;10.63;74.42;97232.06;10401697;28;20032;-53
2023/03/26 03:54:11;;;;;;;6.35;4.45;;;;;;;10.76;74.24;97231.09;10403681;28;20490;-54
2023/03/26 03:59:10;;;;;;;6.18;4.50;;;;;;;10.60;73.95;97196.63;10410412;28;20062;-54
2023/03/26 04:04:09;;;;;;;6.93;4.05;;;;;;;10.76;74.68;97238.00;10408110;28;20127;-54
2023/03/26 04:09:11;;;;;;;5.68;3.53;;;;;;;10.79;74.85;97236.22;10410311;28;20023;-54
2023/03/26 04:14:10;;;;;;;5.32;3.10;;;;;;;10.57;75.18;97255.50;10410768;28;20108;-54
2023/03/26 04:19:09;;;;;;;5.10;3.22;;;;;;;10.49;75.50;97263.31;10407889;28;20107;-54
2023/03/26 04:24:09;;;;;;;4.20;3.30;;;;;;;10.33;74.78;97256.53;10410314;28;20033;-54
2023/03/26 04:29:11;;;;;;;5.25;3.10;;;;;;;10.00;73.29;97222.22;10409668;28;20120;-54
2023/03/26 04:34:22;;;;;;;5.57;2.72;;;;;;;10.35;68.45;97293.72;10409169;28;20123;-54
2023/03/26 04:39:21;;;;;;;5.07;3.00;;;;;;;10.19;62.71;97301.63;10408049;28;20119;-54
2023/03/26 04:44:23;;;;;;;4.22;2.90;;;;;;;10.26;62.30;97310.22;10408976;28;20120;-54
2023/03/26 04:49:22;;;;;;;7.70;4.05;;;;;;;10.13;60.96;97293.88;10406276;28;20803;-54
2023/03/26 04:54:23;;;;;;;11.10;3.85;;;;;;;10.27;59.97;97317.13;10409456;28;20866;-54
2023/03/26 04:59:28;;;;;;;14.13;5.10;;;;;;;10.22;58.92;97305.06;10407196;28;20073;-55
2023/03/26 05:04:32;;;;;;;9.93;4.72;;;;;;;10.18;59.12;97315.44;10408055;28;20119;-55
2023/03/26 05:09:32;;;;;;;7.43;4.82;;;;;;;10.39;59.82;97340.34;10406788;28;20120;-55
2023/03/26 05:14:30;;;;;;;;;;;;;;;9.87;59.89;97254.31;10408475;28;20107;-54
2023/03/26 05:19:29;;;;;;;8.20;4.82;;;;;;;10.59;59.51;97355.78;10327313;28;20012;-54
2023/03/26 05:24:28;;;;;;;10.20;5.40;;;;;;;10.60;60.35;97362.69;10427679;28;20040;-53
2023/03/26 05:29:27;;;;;;;12.15;6.10;;;;;;;10.71;60.62;97364.38;10447463;28;20131;-53
2023/03/26 05:34:26;;;;;;;10.50;5.65;;;;;;;10.81;60.01;97353.03;10448272;28;20542;-54
2023/03/26 05:39:25;;;;;;;9.38;4.07;;;;;;;10.87;60.16;97332.25;10446858;28;20114;-54
2023/03/26 05:44:24;;;;;;;5.78;2.70;;;;;;;10.78;54.38;97343.53;10445573;28;20126;-54
2023/03/26 05:49:23;;;;;;;4.82;3.22;;;;;;;11.03;54.64;97354.59;10441413;28;20034;-54
2023/03/26 05:54:22;;;;;;;7.88;3.33;;;;;;;11.28;54.93;97349.16;10461322;27;20051;-52
2023/03/26 05:59:22;;;;;;;5.80;2.67;;;;;;;11.48;54.84;97345.47;10446104;28;20602;-54
2023/03/26 06:04:21;;;;;;;5.95;3.60;;;;;;;11.65;53.32;97351.34;10446303;28;20087;-53
2023/03/26 06:09:20;;;;;;;7.97;3.90;;;;;;;11.71;52.70;97348.66;10448478;28;20417;-54
2023/03/26 06:14:19;;;;;;;14.48;6.55;;;;;;;11.51;50.17;97355.84;10448253;28;20130;-55
2023/03/26 06:19:18;;;;;;;10.77;5.35;;;;;;;11.67;48.10;97353.06;10448219;28;20102;-54
2023/03/26 06:24:18;;;;;;;9.15;4.40;;;;;;;11.86;48.03;97358.88;10446679;28;20036;-54
2023/03/26 06:29:17;;;;;;;15.82;5.97;;;;;;;11.74;47.49;97366.00;10445436;28;20497;-55
2023/03/26 06:34:16;;;;;;;;;;;;;;;11.89;46.38;97363.19;10448794;28;20051;-53
2023/03/26 06:39:15;;;;;;;5.03;2.75;;;;;;;11.76;46.07;97320.00;10448251;28;19931;-53
2023/03/26 06:44:14;;;;;;;6.72;3.42;;;;;;;11.98;46.32;97363.06;10413383;28;20123;-54
2023/03/26 06:49:13;;;;;;;;;;;;;;;12.19;44.37;97358.47;10443246;28;20060;-53
2023/03/26 06:54:13;;;;;;;4.20;2.70;;;;;;;11.88;44.62;97361.47;10450284;28;19912;-54
2023/03/26 06:59:11;;;;;;;7.22;3.33;;;;;;;12.03;45.19;97355.22;10450256;28;20806;-53
2023/03/26 07:04:10;;;;;;;3.45;2.05;;;;;;;12.24;45.08;97360.09;10450298;28;20693;-55
2023/03/26 07:09:09;;;;;;;5.95;3.45;;;;;;;12.32;43.34;97349.63;10449195;28;20484;-52
2023/03/26 07:14:08;;;;;;;2.95;2.20;;;;;;;12.52;43.92;97342.38;10449037;28;20051;-53
2023/03/26 07:19:07;;;;;;;2.80;1.45;;;;;;;12.64;42.48;97338.72;10450045;28;20147;-53
2023/03/26 07:24:09;;;;;;;3.47;2.15;;;;;;;12.97;42.55;97333.00;10450205;28;20052;-53
2023/03/26 07:29:13;;;;;;;3.25;1.58;;;;;;;12.94;41.89;97331.31;10448768;28;20529;-54
2023/03/26 07:34:38;;;;;;;4.90;2.03;;;;;;;13.07;42.27;97337.16;10455782;28;20067;-54
2023/03/26 07:39:56;;;;;;;4.03;2.10;;;;;;;13.30;42.01;97332.38;10455563;28;20064;-54
2023/03/26 07:45:18;;;;;;;4.68;2.78;;;;;;;13.13;41.63;97337.91;10454530;28;20134;-54
2023/03/26 07:50:20;;;;;;;4.07;2.28;;;;;;;13.08;41.08;97326.72;10454659;28;20067;-54
2023/03/26 07:55:19;;;;;;;2.78;1.60;;;;;;;13.42;41.35;97323.50;10454480;28;20055;-54
2023/03/26 08:00:27;;;;;;;2.83;1.80;;;;;;;13.62;40.32;97315.28;10454124;28;20078;-54
2023/03/26 08:05:33;;;;;;;2.78;1.88;;;;;;;13.60;39.86;97305.78;10455040;28;20115;-54
2023/03/26 08:11:06;;;;;;;3.88;1.77;;;;;;;13.92;40.38;97324.22;10454584;28;20505;-54
2023/03/26 08:16:25;;;;;;;3.92;1.70;;;;;;;14.15;38.49;97321.13;10448925;28;20048;-54
2023/03/26 08:21:32;;;;;;;3.60;1.60;;;;;;;14.06;37.79;97313.50;10452815;28;20063;-54
2023/03/26 08:26:40;;;;;;;1.90;1.23;;;;;;;14.01;36.70;97311.88;10453583;28;20148;-55
2023/03/26 08:31:42;;;;;;;1.73;1.38;;;;;;;14.23;35.06;97302.69;10453543;28;20086;-54
2023/03/26 08:36:41;;;;;;;1.95;1.10;;;;;;;14.47;36.01;97289.94;10453591;28;20070;-54
2023/03/26 08:42:19;;;;;;;2.22;1.40;;;;;;;14.67;34.28;97300.78;10452669;28;20056;-54
2023/03/26 08:47:39;;;;;;;2.80;1.40;;;;;;;14.74;35.52;97299.75;10419145;28;20127;-54
2023/03/26 08:53:00;;;;;;;1.92;1.25;;;;;;;14.89;34.37;97297.66;10451858;28;20173;-54
2023/03/26 08:58:16;;;;;;;2.20;1.50;;;;;;;14.86;35.25;97292.50;10451670;28;20304;-54
2023/03/26 09:03:45;;;;;;;1.35;1.20;;;;;;;14.93;33.99;97287.09;10450560;28;20055;-54
2023/03/26 09:08:47;;;;;;;3.38;1.25;;;;;;;15.14;33.75;97282.19;10451361;28;20505;-54
2023/03/26 09:13:49;;;;;;;2.42;1.17;;;;;;;15.16;34.46;97276.03;10447771;28;20051;-54
2023/03/26 09:19:19;;;;;;;3.22;1.77;;;;;;;15.17;34.74;97269.88;10443970;28;20486;-54
2023/03/26 09:24:47;;;;;;;;;;;;;;;15.65;34.70;97261.56;10447331;28;20545;-55
2023/03/26 09:30:35;;;;;;;2.20;1.20;;;;;;;15.59;33.20;97264.34;10447253;28;19940;-54
2023/03/26 09:35:36;;;;;;;2.28;1.63;;;;;;;15.51;33.32;97255.91;10383093;28;20556;-54
2023/03/26 09:40:45;;;;;;;3.42;1.48;;;;;;;15.57;32.93;97245.22;10443847;28;20454;-54
2023/03/26 09:45:55;;;;;;;1.90;1.15;;;;;;;15.61;32.67;97259.94;10443943;28;20135;-55
2023/03/26 09:51:37;;;;;;;1.50;1.30;;;;;;;15.55;31.75;97244.44;10444825;28;20075;-55
2023/03/26 09:56:44;;;;;;;2.72;1.20;;;;;;;15.55;31.33;97231.38;10445285;28;20123;-55
2023/03/26 10:01:53;;;;;;;2.97;1.20;;;;;;;15.68;30.14;97222.25;10443619;28;20064;-55
2023/03/26 10:07:20;;;;;;;3.30;1.55;;;;;;;15.71;29.44;97218.66;10445857;28;20075;-55
2023/03/26 10:12:42;;;;;;;1.90;1.27;;;;;;;15.99;29.95;97218.72;10445890;28;20117;-55
2023/03/26 10:17:47;;;;;;;1.77;1.17;;;;;;;16.15;29.70;97206.00;10445671;28;20552;-55
2023/03/26 10:23:06;;;;;;;1.30;1.20;;;;;;;16.06;27.98;97201.91;10443635;28;20071;-55
2023/03/26 10:28:08;;;;;;;1.95;1.27;;;;;;;15.88;27.93;97202.53;10403841;28;20083;-55
2023/03/26 10:33:14;;;;;;;0.98;0.82;;;;;;;16.20;27.68;97187.53;10444737;28;20131;-55
2023/03/26 10:38:31;;;;;;;1.10;0.88;;;;;;;16.22;27.16;97172.63;10441429;28;20063;-55
2023/03/26 10:43:39;;;;;;;1.67;1.02;;;;;;;16.35;27.61;97159.97;10442658;28;20055;-55
2023/03/26 10:48:50;;;;;;;3.15;1.75;;;;;;;16.09;27.86;97146.88;10444284;28;20063;-55
2023/03/26 10:53:55;;;;;;;1.85;0.90;;;;;;;16.60;27.00;97145.13;10445078;28;20399;-55
2023/03/26 10:58:58;;;;;;;0.73;0.73;;;;;;;16.82;27.04;97134.81;10444389;28;20086;-56
2023/03/26 11:04:23;;;;;;;2.33;1.00;;;;;;;16.61;26.47;97130.31;10443785;28;20062;-55
2023/03/26 11:09:57;;;;;;;1.02;0.90;;;;;;;16.84;28.08;97130.38;10425376;28;20130;-56
2023/03/26 11:15:28;;;;;;;2.25;1.10;;;;;;;16.85;26.78;97124.19;10444133;28;20062;-56
2023/03/26 11:20:49;;;;;;;0.90;0.90;;;;;;;16.87;26.22;97117.16;10414812;28;20475;-55
2023/03/26 11:26:16;;;;;;;5.07;3.50;;;;;;;17.07;26.57;97097.19;10443954;28;20068;-56
2023/03/26 11:31:34;;;;;;;1.63;0.90;;;;;;;16.86;25.92;97102.34;10446491;28;20063;-57
2023/03/26 11:36:38;;;;;;;3.80;2.70;;;;;;;16.92;25.89;97094.22;10446228;28;20150;-56
2023/03/26 11:41:37;;;;;;;2.30;0.80;;;;;;;17.03;26.63;97086.00;10446512;28;20079;-56
2023/03/26 11:46:42;;;;;;;0.80;0.70;;;;;;;17.04;25.98;97079.81;10446721;28;20119;-57
2023/03/26 11:51:45;;;;;;;1.17;0.85;;;;;;;17.02;26.61;97078.16;10446959;28;20208;-56
2023/03/26 11:57:04;;;;;;;0.88;0.77;;;;;;;17.03;26.31;97064.16;10446034;28;20063;-56
2023/03/26 12:02:03;;;;;;;2.33;0.90;;;;;;;17.31;26.34;97041.22;10446908;28;20066;-55
2023/03/26 12:07:17;;;;;;;0.82;0.63;;;;;;;17.20;26.02;97035.53;10445452;28;20036;-54
2023/03/26 12:12:16;;;;;;;2.08;0.90;;;;;;;17.46;25.57;97023.16;10442645;28;20095;-55
2023/03/26 12:17:33;;;;;;;0.80;0.80;;;;;;;17.54;24.98;97035.03;10444850;28;20067;-55
2023/03/26 12:22:35;;;;;;;1.52;0.75;;;;;;;17.51;24.76;96993.19;10449712;28;20147;-55
2023/03/26 12:27:36;;;;;;;1.55;0.90;;;;;;;17.70;26.54;97024.75;10450125;28;20599;-54
2023/03/26 12:32:41;;;;;;;0.98;0.93;;;;;;;17.66;26.02;97025.81;10447085;28;20135;-55
2023/03/26 12:37:43;;;;;;;1.00;0.80;;;;;;;17.78;25.39;97011.38;10446072;28;20055;-56
2023/03/26 12:42:57;;;;;;;0.98;0.90;;;;;;;17.70;26.07;97001.13;10447737;28;20465;-56
2023/03/26 12:47:59;;;;;;;0.85;0.82;;;;;;;17.65;26.02;96990.00;10449158;28;20071;-55
2023/03/26 12:53:04;;;;;;;2.70;1.77;;;;;;;17.71;25.72;96989.75;10448866;28;20574;-54
2023/03/26 12:58:30;;;;;;;2.47;1.13;;;;;;;17.93;26.38;96981.00;10448224;28;20078;-55
2023/03/26 13:04:10;;;;;;;0.70;0.70;;;;;;;17.77;25.15;96973.75;10448841;28;20142;-56
2023/03/26 13:09:27;;;;;;;1.65;0.90;;;;;;;17.86;25.39;96982.16;10349716;28;20128;-55
2023/03/26 13:14:44;;;;;;;2.38;1.38;;;;;;;17.75;25.54;96979.97;10448935;28;20060;-56
2023/03/26 13:19:52;;;;;;;0.82;0.82;;;;;;;17.83;25.28;96974.44;10447939;28;20122;-55
2023/03/26 13:25:23;;;;;;;8.57;1.52;;;;;;;18.29;26.84;96962.78;10447641;28;20577;-55
2023/03/26 13:30:44;;;;;;;0.88;0.85;;;;;;;18.38;24.59;96956.25;10446198;28;20070;-55
2023/03/26 13:35:50;;;;;;;1.40;1.10;;;;;;;18.30;25.74;96953.13;10446981;28;20052;-55
2023/03/26 13:41:02;;;;;;;0.90;0.90;;;;;;;18.35;25.36;96954.63;10447162;28;20074;-56
2023/03/26 13:46:22;;;;;;;1.08;0.95;;;;;;;18.46;25.07;96951.50;10446740;28;20131;-55
2023/03/26 13:51:29;;;;;;;0.95;0.90;;;;;;;18.57;25.33;96930.88;10446982;28;20196;-55
2023/03/26 13:56:51;;;;;;;1.35;1.10;;;;;;;18.69;25.30;96947.00;10444738;28;20067;-55
2023/03/26 14:01:55;;;;;;;3.63;1.20;;;;;;;18.79;25.64;96943.03;10445886;28;20067;-55
2023/03/26 14:07:02;;;;;;;0.95;0.93;;;;;;;18.49;25.63;96948.75;10426892;28;20090;-55
2023/03/26 14:12:22;;;;;;;2.25;0.90;;;;;;;18.51;25.85;96941.63;10445555;28;20118;-56
2023/03/26 14:17:33;;;;;;;1.23;1.13;;;;;;;18.71;25.83;96934.63;10445072;28;20052;-56
2023/03/26 14:22:38;;;;;;;3.38;1.45;;;;;;;18.50;25.72;96932.06;10446067;28;20067;-56
2023/03/26 14:27:50;;;;;;;2.67;1.55;;;;;;;18.21;25.88;96929.91;10444379;28;20545;-56
2023/03/26 14:33:11;;;;;;;1.95;1.20;;;;;;;18.22;25.90;96934.22;10447792;28;20085;-56
2023/03/26 14:38:32;;;;;;;2.63;1.52;;;;;;;18.31;26.21;96925.94;10447645;28;20060;-56
2023/03/26 14:44:08;;;;;;;1.45;1.20;;;;;;;18.13;25.70;96923.22;10447102;28;20071;-56
2023/03/26 14:49:25;;;;;;;1.08;0.95;;;;;;;17.98;26.21;96926.50;10447312;28;20804;-55
2023/03/26 14:54:28;;;;;;;3.92;1.90;;;;;;;17.91;26.60;96922.44;10446824;28;20548;-56
2023/03/26 15:00:06;;;;;;;1.20;1.08;;;;;;;18.05;26.22;96927.09;10446140;28;20111;-55
2023/03/26 15:05:42;;;;;;;2.13;1.30;;;;;;;17.90;26.52;96928.63;10445988;28;20100;-57
2023/03/26 15:11:01;;;;;;;1.20;1.10;;;;;;;17.69;27.66;96931.22;10446326;28;20537;-55
2023/03/26 15:16:33;;;;;;;3.37;1.20;;;;;;;17.37;28.39;96943.06;10444135;28;20083;-55
2023/03/26 15:22:12;;;;;;;1.83;1.15;;;;;;;17.29;28.67;96937.28;10446432;28;20062;-55
2023/03/26 15:27:46;;;;;;;1.40;1.30;;;;;;;17.08;29.02;96944.25;10400478;28;20071;-55
2023/03/26 15:33:16;;;;;;;2.70;1.60;;;;;;;16.93;29.33;96943.06;10441429;28;20079;-55
2023/03/26 15:38:39;;;;;;;4.97;2.28;;;;;;;16.84;30.01;96949.56;10370237;28;20071;-56
2023/03/26 15:43:57;;;;;;;5.57;2.97;;;;;;;16.67;30.40;96944.06;10441042;28;20504;-55
2023/03/26 15:49:13;;;;;;;4.50;2.47;;;;;;;16.58;30.76;96960.13;10441593;28;20119;-55
2023/03/26 15:54:27;;;;;;;7.30;4.30;;;;;;;16.43;31.30;96953.72;10448022;28;20079;-55
2023/03/26 15:59:35;;;;;;;8.10;5.57;;;;;;;16.24;31.96;96964.00;10448046;28;20126;-55
2023/03/26 16:05:04;;;;;;;9.88;5.63;;;;;;;16.16;31.81;96960.81;10421429;28;20281;-55
2023/03/26 16:10:19;;;;;;;9.90;6.10;;;;;;;16.06;32.32;96965.50;10448817;28;20075;-55
2023/03/26 16:15:32;;;;;;;7.07;3.10;;;;;;;16.03;32.74;96974.34;10432280;28;20105;-55
2023/03/26 16:20:52;;;;;;;7.55;3.35;;;;;;;15.77;33.21;96942.97;10449008;28;20075;-54
2023/03/26 16:25:53;;;;;;;17.58;5.22;;;;;;;15.89;33.38;96976.59;10448781;28;20059;-54
2023/03/26 16:31:08;;;;;;;13.82;8.07;;;;;;;15.86;33.64;96987.16;10451764;28;20072;-54
2023/03/26 16:36:24;;;;;;;14.90;8.60;;;;;;;15.73;33.73;96986.69;10453002;28;20093;-56
2023/03/26 16:41:27;;;;;;;17.30;7.63;;;;;;;15.50;33.92;96987.44;10450950;28;20075;-57
2023/03/26 16:46:48;;;;;;;16.33;7.88;;;;;;;15.29;34.41;96996.00;10449339;28;20063;-56
2023/03/26 16:52:08;;;;;;;15.70;9.10;;;;;;;15.14;35.23;96998.19;10449348;28;20076;-56
2023/03/26 16:57:27;;;;;;;26.67;14.10;;;;;;;14.91;36.38;96998.03;10431269;28;20567;-55
2023/03/26 17:02:41;;;;;;;25.70;14.13;;;;;;;14.55;37.44;97000.81;10450068;28;20070;-55
2023/03/26 17:07:51;;;;;;;15.35;10.55;;;;;;;14.36;37.59;97003.97;10451201;28;20493;-54
2023/03/26 17:12:59;;;;;;;19.08;11.32;;;;;;;14.13;38.19;96998.53;10450186;28;20090;-54
2023/03/26 17:18:12;;;;;;;22.80;9.65;;;;;;;13.88;38.67;97016.56;10450553;28;20047;-54
2023/03/26 17:23:26;;;;;;;15.80;7.50;;;;;;;13.66;38.42;97019.72;10450320;28;20056;-54
2023/03/26 17:28:28;;;;;;;13.13;6.40;;;;;;;13.49;39.02;97020.13;10448002;28;20079;-55
2023/03/26 17:33:30;;;;;;;21.02;8.18;;;;;;;13.32;39.83;97025.72;10446090;28;20067;-54
2023/03/26 17:38:29;;;;;;;34.67;19.50;;;;;;;13.09;40.13;97034.09;10445741;28;20095;-54
2023/03/26 17:43:48;;;;;;;;;;;;;;;12.40;40.64;96933.22;10443937;28;20044;-54
2023/03/26 17:48:57;;;;;;;12.73;6.93;;;;;;;12.96;40.46;97026.59;10444525;28;20011;-54
2023/03/26 17:53:57;;;;;;;10.55;5.53;;;;;;;12.87;40.39;97015.47;10445469;28;20072;-54
2023/03/26 17:59:03;;;;;;;14.05;7.45;;;;;;;12.78;40.88;97022.63;10444632;28;20060;-54
2023/03/26 18:04:10;;;;;;;10.55;7.60;;;;;;;12.54;41.23;97014.44;10444990;28;20218;-54
2023/03/26 18:09:53;;;;;;;11.02;6.85;;;;;;;12.38;41.84;97008.69;10444162;28;20130;-55
2023/03/26 18:15:07;;;;;;;10.73;6.15;;;;;;;12.25;42.09;97007.16;10392197;28;20123;-54
2023/03/26 18:20:18;;;;;;;7.43;4.65;;;;;;;12.20;41.78;97009.00;10444183;28;20070;-55
2023/03/26 18:25:32;;;;;;;7.93;4.30;;;;;;;12.17;41.61;97003.88;10443793;28;20079;-55
2023/03/26 18:30:31;;;;;;;26.85;17.88;;;;;;;11.75;44.29;96989.03;10442964;28;20560;-55
2023/03/26 18:35:48;;;;;;;22.08;13.02;;;;;;;11.87;43.64;96970.63;10441596;28;20477;-55
2023/03/26 18:40:50;;;;;;;21.33;13.32;;;;;;;12.00;44.75;96986.00;10442430;28;20548;-55
2023/03/26 18:45:52;;;;;;;23.50;13.57;;;;;;;11.81;44.79;96965.56;10441183;28;20147;-55
2023/03/26 18:51:06;;;;;;;32.63;22.25;;;;;;;11.69;45.09;96960.59;10441187;28;20623;-54
2023/03/26 18:56:35;;;;;;;26.15;17.35;;;;;;;11.65;45.72;96970.16;10441197;28;20178;-54
2023/03/26 19:01:36;;;;;;;21.70;11.77;;;;;;;11.67;45.87;96964.94;10437331;28;20123;-54
2023/03/26 19:06:39;;;;;;;12.82;8.27;;;;;;;11.43;45.76;96933.31;10422883;28;20495;-54
2023/03/26 19:11:40;;;;;;;13.15;8.13;;;;;;;11.53;45.09;96948.75;10438668;28;20545;-54
2023/03/26 19:16:42;;;;;;;16.67;9.23;;;;;;;11.12;45.67;96896.63;10439354;28;20064;-53
2023/03/26 19:21:41;;;;;;;20.70;9.95;;;;;;;11.24;47.57;96940.56;10442037;28;20055;-54
2023/03/26 19:26:40;;;;;;;16.27;9.18;;;;;;;11.14;48.46;96953.72;10441253;28;20115;-53
2023/03/26 19:31:39;;;;;;;19.92;11.50;;;;;;;10.59;50.38;96951.06;10445058;28;20082;-54
2023/03/26 19:37:03;;;;;;;22.15;11.50;;;;;;;10.55;50.07;96951.13;10446105;28;20063;-53
2023/03/26 19:42:05;;;;;;;25.55;16.40;;;;;;;10.62;49.29;96932.84;9530113;28;10000942;-53
2023/03/26 19:47:14;;;;;;;18.20;11.00;;;;;;;10.65;49.22;96925.91;10344633;28;20068;-53
2023/03/26 19:52:25;;;;;;;19.38;10.70;;;;;;;10.52;49.56;96900.13;10359820;28;20068;-53
2023/03/26 19:57:24;;;;;;;25.52;13.95;;;;;;;10.57;50.08;96918.22;10344951;28;20487;-53
2023/03/26 20:02:25;;;;;;;16.95;10.57;;;;;;;10.51;50.63;96919.16;10357405;28;20036;-53
2023/03/26 20:07:27;;;;;;;24.50;16.92;;;;;;;10.37;50.55;96905.53;10358634;28;20069;-55
2023/03/26 20:12:26;;;;;;;26.77;16.27;;;;;;;10.36;51.31;96904.69;10388866;28;20068;-54
2023/03/26 20:17:25;;;;;;;27.52;16.77;;;;;;;10.29;51.35;96892.69;10356288;28;20031;-53
2023/03/26 20:22:25;;;;;;;31.05;18.33;;;;;;;10.22;51.72;96895.38;10387066;28;20107;-55
2023/03/26 20:27:24;;;;;;;35.15;20.00;;;;;;;10.13;52.22;96889.44;10379822;28;20442;-55
2023/03/26 20:32:23;;;;;;;32.50;17.42;;;;;;;10.08;52.63;96888.63;10355256;28;20457;-53
2023/03/26 20:37:22;;;;;;;25.63;16.50;;;;;;;9.93;52.49;96874.16;10385666;28;20120;-53
2023/03/26 20:42:22;;;;;;;99.38;57.65;;;;;;;9.83;52.96;96887.22;10372189;28;20036;-53
2023/03/26 20:47:21;;;;;;;95.18;53.88;;;;;;;9.63;54.30;96877.06;10403196;28;20124;-53
2023/03/26 20:52:21;;;;;;;123.18;67.03;;;;;;;9.55;54.40;96877.19;10363940;28;20080;-53
2023/03/26 20:57:20;;;;;;;40.10;24.73;;;;;;;9.48;54.32;96870.34;10402828;28;20060;-53
2023/03/26 21:02:20;;;;;;;39.88;22.67;;;;;;;9.33;54.64;96867.06;10364563;28;20072;-54
2023/03/26 21:07:19;;;;;;;39.83;22.40;;;;;;;9.30;54.65;96872.28;10402826;28;20123;-54
2023/03/26 21:12:32;;;;;;;34.22;22.10;;;;;;;9.19;55.97;96868.03;10364157;28;20110;-54
2023/03/26 21:17:31;;;;;;;30.63;20.45;;;;;;;8.35;56.12;96733.44;10395658;28;20343;-55
2023/03/26 21:22:39;;;;;;;45.88;25.08;;;;;;;8.97;56.35;96852.69;10363739;28;20084;-54
2023/03/26 21:28:05;;;;;;;36.38;22.23;;;;;;;8.81;56.48;96841.66;10380968;28;20148;-54
2023/03/26 21:33:06;;;;;;;30.63;19.92;;;;;;;8.66;56.22;96827.09;10379381;28;20052;-54
2023/03/26 21:38:08;;;;;;;28.70;18.13;;;;;;;8.63;55.98;96827.13;10398576;28;20067;-55
2023/03/26 21:43:10;;;;;;;23.25;15.27;;;;;;;8.54;56.22;96822.03;10381449;28;20476;-53
2023/03/26 21:48:10;;;;;;;16.60;12.05;;;;;;;8.30;56.51;96807.56;10368387;28;20494;-53
2023/03/26 21:53:14;;;;;;;19.58;12.45;;;;;;;8.27;55.72;96803.28;10399008;28;20076;-53
2023/03/26 21:58:19;;;;;;;23.42;14.10;;;;;;;8.14;56.26;96795.63;10363753;28;20366;-53
2023/03/26 22:03:36;;;;;;;35.05;22.65;;;;;;;8.02;57.51;96774.16;10364448;28;20064;-54
2023/03/26 22:08:37;;;;;;;30.65;16.08;;;;;;;8.03;58.23;96782.75;10355556;28;20184;-53
2023/03/26 22:13:37;;;;;;;25.23;15.20;;;;;;;7.96;59.35;96789.69;10392506;28;20147;-54
2023/03/26 22:18:36;;;;;;;23.27;16.73;;;;;;;7.87;60.10;96787.16;10351616;28;20136;-53
2023/03/26 22:23:36;;;;;;;24.00;15.27;;;;;;;7.83;60.57;96764.84;10392898;28;20132;-53
2023/03/26 22:28:35;;;;;;;21.17;12.90;;;;;;;7.76;59.99;96761.41;10373267;28;20133;-53
2023/03/26 22:33:34;;;;;;;25.85;15.18;;;;;;;7.70;60.33;96742.53;10392089;28;20059;-53
2023/03/26 22:38:34;;;;;;;20.75;13.50;;;;;;;7.66;60.39;96721.88;10359711;28;20139;-53
2023/03/26 22:43:33;;;;;;;24.73;14.80;;;;;;;7.69;60.54;96715.00;10362104;28;20111;-53
2023/03/26 22:48:32;;;;;;;22.05;13.35;;;;;;;7.59;60.59;96709.00;10359405;28;20029;-53
2023/03/26 22:53:31;;;;;;;33.08;19.70;;;;;;;7.36;63.02;96727.19;10376880;28;20781;-53
2023/03/26 22:58:32;;;;;;;23.92;15.77;;;;;;;7.14;65.29;96711.78;10399924;28;20024;-53
2023/03/26 23:03:31;;;;;;;27.83;15.38;;;;;;;6.95;65.76;96705.00;10358344;28;20107;-53
2023/03/26 23:08:31;;;;;;;19.75;11.23;;;;;;;6.80;66.41;96695.59;10379851;28;20033;-55
2023/03/26 23:13:30;;;;;;;25.80;11.80;;;;;;;6.74;65.77;96688.72;10401506;28;20067;-54
2023/03/26 23:18:29;;;;;;;;;;;;;;;6.77;65.95;96673.25;10361102;28;20476;-54
2023/03/26 23:23:31;;;;;;;18.80;12.27;;;;;;;6.75;65.30;96672.41;10402711;28;20309;-55
2023/03/26 23:28:32;;;;;;;19.13;13.48;;;;;;;6.78;65.56;96666.38;10370976;28;20072;-55
2023/03/26 23:33:34;;;;;;;15.18;10.65;;;;;;;6.78;65.60;96661.22;10361808;28;20471;-55
2023/03/26 23:38:34;;;;;;;11.27;7.43;;;;;;;6.68;64.99;96642.34;10401793;28;20084;-55
2023/03/26 23:43:34;;;;;;;14.88;8.60;;;;;;;6.66;64.83;96659.53;10359430;28;20076;-55